Salete, Brazil
Current Conditions -  °F | °C
As of 12:00 AM on Friday 24 Oct 2014 (Local Time) from SBNF Reporting Station
Broken Clouds Broken Clouds  
Wind Chill: 72°   Ceiling: 4500
Heat Index: 72°   Visibility: 6mi
Dew Point: 61°   Wind: 9mph
Humidity: 69%   Direction: 30°NNE
Pressure: 30.06"   Gusts: NA
Location:  26.98°S, 50°W
Report Text: SBNF 240200Z 03008KT 9999 FEW025 BKN045 22/16 Q1018
Loading
Personal Weather Stations






























Interactive Weather Map
Tropical Storm Tracking
New forecast layout! Learn more

10-Day Weather Forecast

Advertisements
Track Severe Weather on mobile